sensor_id;sensor_type;location;lat;lon;timestamp;P1;durP1;ratioP1;P2;durP2;ratioP2
35518;SDS011;21627;48.216;16.482;2022-11-11T00:01:16;16.02;;;7.53;;
35518;SDS011;21627;48.216;16.482;2022-11-11T00:03:45;12.55;;;7.75;;
35518;SDS011;21627;48.216;16.482;2022-11-11T00:06:12;14.65;;;7.35;;
35518;SDS011;21627;48.216;16.482;2022-11-11T00:08:42;13.40;;;7.95;;
35518;SDS011;21627;48.216;16.482;2022-11-11T00:11:13;13.35;;;7.53;;
35518;SDS011;21627;48.216;16.482;2022-11-11T00:13:42;9.80;;;7.53;;
35518;SDS011;21627;48.216;16.482;2022-11-11T00:16:13;13.75;;;8.05;;
35518;SDS011;21627;48.216;16.482;2022-11-11T00:18:45;18.08;;;8.50;;
35518;SDS011;21627;48.216;16.482;2022-11-11T00:27:14;16.38;;;8.30;;
35518;SDS011;21627;48.216;16.482;2022-11-11T00:29:46;14.13;;;7.65;;
35518;SDS011;21627;48.216;16.482;2022-11-11T00:32:13;14.45;;;8.50;;
35518;SDS011;21627;48.216;16.482;2022-11-11T00:34:50;16.67;;;7.57;;
35518;SDS011;21627;48.216;16.482;2022-11-11T00:37:42;16.98;;;8.55;;
35518;SDS011;21627;48.216;16.482;2022-11-11T00:40:12;16.70;;;8.77;;
35518;SDS011;21627;48.216;16.482;2022-11-11T00:42:40;13.68;;;7.85;;
35518;SDS011;21627;48.216;16.482;2022-11-11T00:45:08;12.43;;;7.93;;
35518;SDS011;21627;48.216;16.482;2022-11-11T00:47:36;13.45;;;7.45;;
35518;SDS011;21627;48.216;16.482;2022-11-11T00:50:24;14.32;;;8.27;;
35518;SDS011;21627;48.216;16.482;2022-11-11T00:53:16;15.18;;;7.47;;
35518;SDS011;21627;48.216;16.482;2022-11-11T00:55:52;13.82;;;7.65;;
35518;SDS011;21627;48.216;16.482;2022-11-11T00:58:21;13.70;;;7.30;;
35518;SDS011;21627;48.216;16.482;2022-11-11T01:00:50;13.55;;;7.75;;
35518;SDS011;21627;48.216;16.482;2022-11-11T01:03:20;18.02;;;8.07;;
35518;SDS011;21627;48.216;16.482;2022-11-11T01:05:48;13.40;;;7.85;;
35518;SDS011;21627;48.216;16.482;2022-11-11T01:08:16;15.60;;;7.82;;
35518;SDS011;21627;48.216;16.482;2022-11-11T01:10:43;14.43;;;7.53;;
35518;SDS011;21627;48.216;16.482;2022-11-11T01:13:18;13.32;;;8.40;;
35518;SDS011;21627;48.216;16.482;2022-11-11T01:15:50;15.70;;;8.27;;
35518;SDS011;21627;48.216;16.482;2022-11-11T01:18:26;13.18;;;7.93;;
35518;SDS011;21627;48.216;16.482;2022-11-11T01:23:31;11.75;;;7.70;;
35518;SDS011;21627;48.216;16.482;2022-11-11T01:28:42;16.55;;;7.28;;
35518;SDS011;21627;48.216;16.482;2022-11-11T01:31:11;12.73;;;7.97;;
35518;SDS011;21627;48.216;16.482;2022-11-11T01:33:40;12.73;;;7.32;;
35518;SDS011;21627;48.216;16.482;2022-11-11T01:36:11;11.88;;;7.60;;
35518;SDS011;21627;48.216;16.482;2022-11-11T01:38:42;11.80;;;7.78;;
35518;SDS011;21627;48.216;16.482;2022-11-11T01:41:10;12.65;;;7.95;;
35518;SDS011;21627;48.216;16.482;2022-11-11T01:46:40;12.40;;;7.45;;
35518;SDS011;21627;48.216;16.482;2022-11-11T01:52:25;15.88;;;8.15;;
35518;SDS011;21627;48.216;16.482;2022-11-11T01:54:57;13.65;;;8.55;;
35518;SDS011;21627;48.216;16.482;2022-11-11T01:57:39;14.10;;;7.90;;
35518;SDS011;21627;48.216;16.482;2022-11-11T02:00:23;12.38;;;8.18;;
35518;SDS011;21627;48.216;16.482;2022-11-11T02:05:23;14.57;;;8.18;;
35518;SDS011;21627;48.216;16.482;2022-11-11T02:08:12;10.98;;;7.93;;
35518;SDS011;21627;48.216;16.482;2022-11-11T02:11:00;17.30;;;8.98;;
35518;SDS011;21627;48.216;16.482;2022-11-11T02:13:32;14.90;;;8.70;;
35518;SDS011;21627;48.216;16.482;2022-11-11T02:16:24;16.33;;;8.05;;
35518;SDS011;21627;48.216;16.482;2022-11-11T02:18:52;18.98;;;9.48;;
35518;SDS011;21627;48.216;16.482;2022-11-11T02:21:28;16.83;;;9.93;;
35518;SDS011;21627;48.216;16.482;2022-11-11T02:24:07;16.75;;;9.30;;
35518;SDS011;21627;48.216;16.482;2022-11-11T02:26:39;18.20;;;10.48;;
35518;SDS011;21627;48.216;16.482;2022-11-11T02:29:10;18.52;;;10.25;;
35518;SDS011;21627;48.216;16.482;2022-11-11T02:31:42;16.25;;;9.70;;
35518;SDS011;21627;48.216;16.482;2022-11-11T02:34:09;18.85;;;10.60;;
35518;SDS011;21627;48.216;16.482;2022-11-11T02:36:37;18.67;;;10.07;;
35518;SDS011;21627;48.216;16.482;2022-11-11T02:39:07;17.00;;;10.00;;
35518;SDS011;21627;48.216;16.482;2022-11-11T02:41:34;18.02;;;10.48;;
35518;SDS011;21627;48.216;16.482;2022-11-11T02:44:20;18.60;;;9.57;;
35518;SDS011;21627;48.216;16.482;2022-11-11T02:46:47;15.75;;;9.95;;
35518;SDS011;21627;48.216;16.482;2022-11-11T02:49:14;22.10;;;10.52;;
35518;SDS011;21627;48.216;16.482;2022-11-11T02:51:42;16.92;;;9.98;;
35518;SDS011;21627;48.216;16.482;2022-11-11T02:54:09;17.27;;;10.60;;
35518;SDS011;21627;48.216;16.482;2022-11-11T02:56:36;18.92;;;10.25;;
35518;SDS011;21627;48.216;16.482;2022-11-11T02:59:22;18.23;;;10.15;;
35518;SDS011;21627;48.216;16.482;2022-11-11T03:01:49;16.40;;;10.15;;
35518;SDS011;21627;48.216;16.482;2022-11-11T03:04:17;15.48;;;10.00;;
35518;SDS011;21627;48.216;16.482;2022-11-11T03:06:44;20.25;;;10.40;;
35518;SDS011;21627;48.216;16.482;2022-11-11T03:09:12;20.77;;;10.35;;
35518;SDS011;21627;48.216;16.482;2022-11-11T03:11:39;15.07;;;9.95;;
35518;SDS011;21627;48.216;16.482;2022-11-11T03:14:06;14.35;;;9.55;;
35518;SDS011;21627;48.216;16.482;2022-11-11T03:16:34;15.70;;;10.00;;
35518;SDS011;21627;48.216;16.482;2022-11-11T03:21:47;17.63;;;10.75;;
35518;SDS011;21627;48.216;16.482;2022-11-11T03:24:34;18.80;;;10.55;;
35518;SDS011;21627;48.216;16.482;2022-11-11T03:27:20;15.82;;;10.38;;
35518;SDS011;21627;48.216;16.482;2022-11-11T03:29:47;17.45;;;11.10;;
35518;SDS011;21627;48.216;16.482;2022-11-11T03:32:14;20.33;;;11.55;;
35518;SDS011;21627;48.216;16.482;2022-11-11T03:34:41;17.80;;;10.98;;
35518;SDS011;21627;48.216;16.482;2022-11-11T03:37:10;15.48;;;10.60;;
35518;SDS011;21627;48.216;16.482;2022-11-11T03:39:56;16.23;;;10.43;;
35518;SDS011;21627;48.216;16.482;2022-11-11T03:42:23;15.95;;;11.38;;
35518;SDS011;21627;48.216;16.482;2022-11-11T03:44:50;19.13;;;10.65;;
35518;SDS011;21627;48.216;16.482;2022-11-11T03:47:17;18.00;;;10.68;;
35518;SDS011;21627;48.216;16.482;2022-11-11T03:49:46;19.90;;;11.00;;
35518;SDS011;21627;48.216;16.482;2022-11-11T03:52:13;21.92;;;11.75;;
35518;SDS011;21627;48.216;16.482;2022-11-11T03:54:40;19.58;;;11.65;;
35518;SDS011;21627;48.216;16.482;2022-11-11T03:57:07;21.42;;;11.63;;
35518;SDS011;21627;48.216;16.482;2022-11-11T03:59:53;23.33;;;12.13;;
35518;SDS011;21627;48.216;16.482;2022-11-11T04:02:20;19.40;;;11.65;;
35518;SDS011;21627;48.216;16.482;2022-11-11T04:05:06;24.05;;;12.45;;
35518;SDS011;21627;48.216;16.482;2022-11-11T04:07:51;20.75;;;11.73;;
35518;SDS011;21627;48.216;16.482;2022-11-11T04:10:37;22.52;;;11.55;;
35518;SDS011;21627;48.216;16.482;2022-11-11T04:13:04;22.52;;;12.55;;
35518;SDS011;21627;48.216;16.482;2022-11-11T04:15:54;21.70;;;11.77;;
35518;SDS011;21627;48.216;16.482;2022-11-11T04:18:33;26.85;;;14.82;;
35518;SDS011;21627;48.216;16.482;2022-11-11T04:21:21;26.30;;;15.05;;
35518;SDS011;21627;48.216;16.482;2022-11-11T04:24:09;24.17;;;14.15;;
35518;SDS011;21627;48.216;16.482;2022-11-11T04:27:07;20.63;;;12.80;;
35518;SDS011;21627;48.216;16.482;2022-11-11T04:29:36;20.23;;;12.05;;
35518;SDS011;21627;48.216;16.482;2022-11-11T04:32:04;17.40;;;11.75;;
35518;SDS011;21627;48.216;16.482;2022-11-11T04:35:01;18.40;;;12.05;;
35518;SDS011;21627;48.216;16.482;2022-11-11T04:37:36;18.17;;;11.35;;
35518;SDS011;21627;48.216;16.482;2022-11-11T04:40:12;15.75;;;11.00;;
35518;SDS011;21627;48.216;16.482;2022-11-11T04:42:58;16.50;;;12.05;;
35518;SDS011;21627;48.216;16.482;2022-11-11T04:45:25;23.50;;;11.52;;
35518;SDS011;21627;48.216;16.482;2022-11-11T04:50:33;16.85;;;10.85;;
35518;SDS011;21627;48.216;16.482;2022-11-11T04:53:06;15.90;;;10.98;;
35518;SDS011;21627;48.216;16.482;2022-11-11T04:55:39;17.20;;;11.10;;
35518;SDS011;21627;48.216;16.482;2022-11-11T04:58:27;19.43;;;11.90;;
35518;SDS011;21627;48.216;16.482;2022-11-11T05:01:00;17.90;;;12.07;;
35518;SDS011;21627;48.216;16.482;2022-11-11T05:03:28;18.42;;;11.70;;
35518;SDS011;21627;48.216;16.482;2022-11-11T05:05:56;15.68;;;11.15;;
35518;SDS011;21627;48.216;16.482;2022-11-11T05:08:44;18.77;;;12.15;;
35518;SDS011;21627;48.216;16.482;2022-11-11T05:11:23;21.92;;;11.60;;
35518;SDS011;21627;48.216;16.482;2022-11-11T05:13:57;17.50;;;12.48;;
35518;SDS011;21627;48.216;16.482;2022-11-11T05:16:49;19.17;;;11.68;;
35518;SDS011;21627;48.216;16.482;2022-11-11T05:19:41;16.73;;;11.40;;
35518;SDS011;21627;48.216;16.482;2022-11-11T05:22:40;14.07;;;10.70;;
35518;SDS011;21627;48.216;16.482;2022-11-11T05:25:09;15.88;;;10.70;;
35518;SDS011;21627;48.216;16.482;2022-11-11T05:27:59;15.67;;;10.97;;
35518;SDS011;21627;48.216;16.482;2022-11-11T05:30:26;15.57;;;10.68;;
35518;SDS011;21627;48.216;16.482;2022-11-11T05:32:53;13.05;;;10.07;;
35518;SDS011;21627;48.216;16.482;2022-11-11T05:35:21;14.27;;;10.95;;
35518;SDS011;21627;48.216;16.482;2022-11-11T05:37:49;17.20;;;11.35;;
35518;SDS011;21627;48.216;16.482;2022-11-11T05:40:34;14.88;;;10.80;;
35518;SDS011;21627;48.216;16.482;2022-11-11T05:43:02;17.67;;;11.60;;
35518;SDS011;21627;48.216;16.482;2022-11-11T05:45:29;16.55;;;11.68;;
35518;SDS011;21627;48.216;16.482;2022-11-11T05:47:59;16.53;;;10.77;;
35518;SDS011;21627;48.216;16.482;2022-11-11T05:50:28;16.95;;;10.73;;
35518;SDS011;21627;48.216;16.482;2022-11-11T05:52:55;14.65;;;10.00;;
35518;SDS011;21627;48.216;16.482;2022-11-11T05:55:22;19.52;;;10.68;;
35518;SDS011;21627;48.216;16.482;2022-11-11T05:57:49;14.00;;;10.37;;
35518;SDS011;21627;48.216;16.482;2022-11-11T06:00:16;15.05;;;10.65;;
35518;SDS011;21627;48.216;16.482;2022-11-11T06:02:44;13.23;;;10.23;;
35518;SDS011;21627;48.216;16.482;2022-11-11T06:05:11;15.65;;;10.25;;
35518;SDS011;21627;48.216;16.482;2022-11-11T06:07:38;14.20;;;10.48;;
35518;SDS011;21627;48.216;16.482;2022-11-11T06:10:05;15.60;;;9.93;;
35518;SDS011;21627;48.216;16.482;2022-11-11T06:12:52;13.90;;;9.70;;
35518;SDS011;21627;48.216;16.482;2022-11-11T06:15:31;13.80;;;9.90;;
35518;SDS011;21627;48.216;16.482;2022-11-11T06:17:59;13.13;;;9.00;;
35518;SDS011;21627;48.216;16.482;2022-11-11T06:20:27;12.13;;;8.38;;
35518;SDS011;21627;48.216;16.482;2022-11-11T06:22:54;11.70;;;9.33;;
35518;SDS011;21627;48.216;16.482;2022-11-11T06:25:24;12.77;;;9.68;;
35518;SDS011;21627;48.216;16.482;2022-11-11T06:28:12;19.20;;;8.90;;
35518;SDS011;21627;48.216;16.482;2022-11-11T06:30:40;12.33;;;9.27;;
35518;SDS011;21627;48.216;16.482;2022-11-11T06:35:43;12.57;;;9.07;;
35518;SDS011;21627;48.216;16.482;2022-11-11T06:38:10;14.13;;;9.43;;
35518;SDS011;21627;48.216;16.482;2022-11-11T06:40:38;14.20;;;8.82;;
35518;SDS011;21627;48.216;16.482;2022-11-11T06:43:07;13.93;;;10.10;;
35518;SDS011;21627;48.216;16.482;2022-11-11T06:45:34;15.07;;;10.25;;
35518;SDS011;21627;48.216;16.482;2022-11-11T06:48:05;16.92;;;10.75;;
35518;SDS011;21627;48.216;16.482;2022-11-11T06:50:32;18.03;;;11.80;;
35518;SDS011;21627;48.216;16.482;2022-11-11T06:53:05;16.67;;;11.02;;
35518;SDS011;21627;48.216;16.482;2022-11-11T06:55:37;16.92;;;10.98;;
35518;SDS011;21627;48.216;16.482;2022-11-11T06:58:05;15.65;;;11.25;;
35518;SDS011;21627;48.216;16.482;2022-11-11T07:00:32;16.55;;;11.65;;
35518;SDS011;21627;48.216;16.482;2022-11-11T07:03:04;15.25;;;10.60;;
35518;SDS011;21627;48.216;16.482;2022-11-11T07:05:33;27.42;;;13.63;;
35518;SDS011;21627;48.216;16.482;2022-11-11T07:08:04;19.27;;;12.40;;
35518;SDS011;21627;48.216;16.482;2022-11-11T07:10:34;20.88;;;12.25;;
35518;SDS011;21627;48.216;16.482;2022-11-11T07:13:05;23.90;;;14.80;;
35518;SDS011;21627;48.216;16.482;2022-11-11T07:15:33;25.10;;;15.50;;
35518;SDS011;21627;48.216;16.482;2022-11-11T07:18:01;32.03;;;17.48;;
35518;SDS011;21627;48.216;16.482;2022-11-11T07:20:29;27.05;;;17.25;;
35518;SDS011;21627;48.216;16.482;2022-11-11T07:22:57;35.50;;;17.52;;
35518;SDS011;21627;48.216;16.482;2022-11-11T07:25:26;30.90;;;18.02;;
35518;SDS011;21627;48.216;16.482;2022-11-11T07:27:53;33.95;;;18.27;;
35518;SDS011;21627;48.216;16.482;2022-11-11T07:30:24;31.00;;;16.13;;
35518;SDS011;21627;48.216;16.482;2022-11-11T07:32:52;34.88;;;18.65;;
35518;SDS011;21627;48.216;16.482;2022-11-11T07:35:20;36.58;;;19.52;;
35518;SDS011;21627;48.216;16.482;2022-11-11T07:37:48;33.65;;;19.63;;
35518;SDS011;21627;48.216;16.482;2022-11-11T07:40:16;34.72;;;17.90;;
35518;SDS011;21627;48.216;16.482;2022-11-11T07:42:45;32.38;;;17.50;;
35518;SDS011;21627;48.216;16.482;2022-11-11T07:45:13;32.10;;;17.77;;
35518;SDS011;21627;48.216;16.482;2022-11-11T07:47:41;35.85;;;17.67;;
35518;SDS011;21627;48.216;16.482;2022-11-11T07:50:10;32.53;;;17.23;;
35518;SDS011;21627;48.216;16.482;2022-11-11T07:52:37;33.63;;;16.70;;
35518;SDS011;21627;48.216;16.482;2022-11-11T07:55:06;38.17;;;18.20;;
35518;SDS011;21627;48.216;16.482;2022-11-11T07:57:35;35.33;;;17.75;;
35518;SDS011;21627;48.216;16.482;2022-11-11T08:00:03;27.15;;;15.82;;
35518;SDS011;21627;48.216;16.482;2022-11-11T08:02:32;40.95;;;17.73;;
35518;SDS011;21627;48.216;16.482;2022-11-11T08:04:59;31.92;;;18.02;;
35518;SDS011;21627;48.216;16.482;2022-11-11T08:07:27;34.22;;;17.35;;
35518;SDS011;21627;48.216;16.482;2022-11-11T08:09:54;36.42;;;17.98;;
35518;SDS011;21627;48.216;16.482;2022-11-11T08:12:21;40.17;;;17.83;;
35518;SDS011;21627;48.216;16.482;2022-11-11T08:15:07;31.63;;;17.13;;
35518;SDS011;21627;48.216;16.482;2022-11-11T08:17:38;35.35;;;17.85;;
35518;SDS011;21627;48.216;16.482;2022-11-11T08:20:05;31.63;;;16.98;;
35518;SDS011;21627;48.216;16.482;2022-11-11T08:22:35;33.05;;;17.60;;
35518;SDS011;21627;48.216;16.482;2022-11-11T08:25:26;28.60;;;16.48;;
35518;SDS011;21627;48.216;16.482;2022-11-11T08:27:56;33.88;;;17.10;;
35518;SDS011;21627;48.216;16.482;2022-11-11T08:30:28;32.42;;;18.13;;
35518;SDS011;21627;48.216;16.482;2022-11-11T08:33:00;32.35;;;17.88;;
35518;SDS011;21627;48.216;16.482;2022-11-11T08:35:51;32.25;;;18.10;;
35518;SDS011;21627;48.216;16.482;2022-11-11T08:38:22;34.40;;;17.63;;
35518;SDS011;21627;48.216;16.482;2022-11-11T08:40:51;27.63;;;17.08;;
35518;SDS011;21627;48.216;16.482;2022-11-11T08:43:18;29.75;;;16.42;;
35518;SDS011;21627;48.216;16.482;2022-11-11T08:45:46;28.42;;;17.58;;
35518;SDS011;21627;48.216;16.482;2022-11-11T08:48:17;29.95;;;16.80;;
35518;SDS011;21627;48.216;16.482;2022-11-11T08:50:44;31.88;;;16.10;;
35518;SDS011;21627;48.216;16.482;2022-11-11T08:53:11;31.98;;;17.27;;
35518;SDS011;21627;48.216;16.482;2022-11-11T08:55:38;38.60;;;19.02;;
35518;SDS011;21627;48.216;16.482;2022-11-11T08:58:06;32.35;;;17.35;;
35518;SDS011;21627;48.216;16.482;2022-11-11T09:00:33;43.70;;;18.85;;
35518;SDS011;21627;48.216;16.482;2022-11-11T09:03:01;29.80;;;17.40;;
35518;SDS011;21627;48.216;16.482;2022-11-11T09:05:37;33.40;;;17.13;;
35518;SDS011;21627;48.216;16.482;2022-11-11T09:08:06;29.60;;;16.77;;
35518;SDS011;21627;48.216;16.482;2022-11-11T09:10:34;29.25;;;17.27;;
35518;SDS011;21627;48.216;16.482;2022-11-11T09:13:02;26.20;;;17.33;;
35518;SDS011;21627;48.216;16.482;2022-11-11T09:15:30;30.33;;;18.90;;
35518;SDS011;21627;48.216;16.482;2022-11-11T09:17:58;32.55;;;17.05;;
35518;SDS011;21627;48.216;16.482;2022-11-11T09:20:26;32.78;;;19.38;;
35518;SDS011;21627;48.216;16.482;2022-11-11T09:22:54;28.80;;;16.40;;
35518;SDS011;21627;48.216;16.482;2022-11-11T09:25:21;26.98;;;17.13;;
35518;SDS011;21627;48.216;16.482;2022-11-11T09:27:55;30.30;;;17.02;;
35518;SDS011;21627;48.216;16.482;2022-11-11T09:30:24;34.22;;;19.15;;
35518;SDS011;21627;48.216;16.482;2022-11-11T09:32:53;34.35;;;17.08;;
35518;SDS011;21627;48.216;16.482;2022-11-11T09:35:20;28.95;;;18.00;;
35518;SDS011;21627;48.216;16.482;2022-11-11T09:43:34;30.58;;;16.67;;
35518;SDS011;21627;48.216;16.482;2022-11-11T09:49:24;33.53;;;17.50;;
35518;SDS011;21627;48.216;16.482;2022-11-11T09:52:17;35.08;;;17.33;;
35518;SDS011;21627;48.216;16.482;2022-11-11T10:00:55;24.35;;;15.57;;
35518;SDS011;21627;48.216;16.482;2022-11-11T10:03:59;26.55;;;16.10;;
35518;SDS011;21627;48.216;16.482;2022-11-11T10:06:55;24.30;;;15.18;;
35518;SDS011;21627;48.216;16.482;2022-11-11T10:09:31;26.65;;;16.05;;
35518;SDS011;21627;48.216;16.482;2022-11-11T10:12:09;26.42;;;14.75;;
35518;SDS011;21627;48.216;16.482;2022-11-11T10:14:39;27.20;;;15.20;;
35518;SDS011;21627;48.216;16.482;2022-11-11T10:17:36;30.35;;;16.23;;
35518;SDS011;21627;48.216;16.482;2022-11-11T10:23:16;24.00;;;15.32;;
35518;SDS011;21627;48.216;16.482;2022-11-11T10:25:48;29.10;;;15.30;;
35518;SDS011;21627;48.216;16.482;2022-11-11T10:28:23;23.13;;;14.95;;
35518;SDS011;21627;48.216;16.482;2022-11-11T10:30:58;26.10;;;15.10;;
35518;SDS011;21627;48.216;16.482;2022-11-11T10:33:30;19.77;;;14.35;;
35518;SDS011;21627;48.216;16.482;2022-11-11T10:36:27;21.95;;;14.65;;
35518;SDS011;21627;48.216;16.482;2022-11-11T10:39:03;28.48;;;15.32;;
35518;SDS011;21627;48.216;16.482;2022-11-11T10:44:20;27.92;;;15.57;;
35518;SDS011;21627;48.216;16.482;2022-11-11T10:49:39;23.58;;;14.98;;
35518;SDS011;21627;48.216;16.482;2022-11-11T10:52:40;27.15;;;14.82;;
35518;SDS011;21627;48.216;16.482;2022-11-11T10:55:33;24.95;;;14.80;;
35518;SDS011;21627;48.216;16.482;2022-11-11T10:58:10;27.20;;;15.32;;
35518;SDS011;21627;48.216;16.482;2022-11-11T11:00:56;29.90;;;16.73;;
35518;SDS011;21627;48.216;16.482;2022-11-11T11:06:09;23.10;;;13.85;;
35518;SDS011;21627;48.216;16.482;2022-11-11T11:14:46;22.33;;;14.43;;
35518;SDS011;21627;48.216;16.482;2022-11-11T11:17:20;20.20;;;13.13;;
35518;SDS011;21627;48.216;16.482;2022-11-11T11:20:06;24.50;;;14.95;;
35518;SDS011;21627;48.216;16.482;2022-11-11T11:22:52;23.00;;;14.93;;
35518;SDS011;21627;48.216;16.482;2022-11-11T11:25:25;21.17;;;14.35;;
35518;SDS011;21627;48.216;16.482;2022-11-11T11:28:08;23.95;;;14.05;;
35518;SDS011;21627;48.216;16.482;2022-11-11T11:30:39;23.83;;;12.95;;
35518;SDS011;21627;48.216;16.482;2022-11-11T11:33:23;26.30;;;15.25;;
35518;SDS011;21627;48.216;16.482;2022-11-11T11:35:50;30.63;;;14.35;;
35518;SDS011;21627;48.216;16.482;2022-11-11T11:38:17;23.63;;;13.80;;
35518;SDS011;21627;48.216;16.482;2022-11-11T11:40:52;25.52;;;13.77;;
35518;SDS011;21627;48.216;16.482;2022-11-11T11:46:15;22.42;;;12.90;;
35518;SDS011;21627;48.216;16.482;2022-11-11T11:49:12;20.17;;;12.75;;
35518;SDS011;21627;48.216;16.482;2022-11-11T11:54:54;21.00;;;13.27;;
35518;SDS011;21627;48.216;16.482;2022-11-11T12:00:21;23.25;;;13.65;;
35518;SDS011;21627;48.216;16.482;2022-11-11T12:03:16;25.98;;;14.23;;
35518;SDS011;21627;48.216;16.482;2022-11-11T12:09:52;24.88;;;12.75;;
35518;SDS011;21627;48.216;16.482;2022-11-11T12:12:47;22.83;;;12.65;;
35518;SDS011;21627;48.216;16.482;2022-11-11T12:18:14;21.88;;;12.57;;
35518;SDS011;21627;48.216;16.482;2022-11-11T12:21:13;24.70;;;13.20;;
35518;SDS011;21627;48.216;16.482;2022-11-11T12:34:49;18.60;;;12.88;;
35518;SDS011;21627;48.216;16.482;2022-11-11T12:51:55;21.42;;;13.32;;
35518;SDS011;21627;48.216;16.482;2022-11-11T12:58:35;23.33;;;13.52;;
35518;SDS011;21627;48.216;16.482;2022-11-11T13:15:36;25.30;;;13.85;;
35518;SDS011;21627;48.216;16.482;2022-11-11T13:18:09;24.95;;;13.93;;
35518;SDS011;21627;48.216;16.482;2022-11-11T13:23:27;30.05;;;14.35;;
35518;SDS011;21627;48.216;16.482;2022-11-11T13:25:55;26.75;;;14.70;;
35518;SDS011;21627;48.216;16.482;2022-11-11T13:28:34;28.90;;;14.70;;
35518;SDS011;21627;48.216;16.482;2022-11-11T13:33:57;26.13;;;14.00;;
35518;SDS011;21627;48.216;16.482;2022-11-11T13:36:31;26.48;;;13.35;;
35518;SDS011;21627;48.216;16.482;2022-11-11T13:41:54;27.73;;;13.68;;
35518;SDS011;21627;48.216;16.482;2022-11-11T13:44:24;25.10;;;13.50;;
35518;SDS011;21627;48.216;16.482;2022-11-11T13:47:11;26.13;;;14.38;;
35518;SDS011;21627;48.216;16.482;2022-11-11T13:50:31;22.80;;;13.55;;
35518;SDS011;21627;48.216;16.482;2022-11-11T13:53:04;24.63;;;12.95;;
35518;SDS011;21627;48.216;16.482;2022-11-11T13:55:39;22.23;;;13.65;;
35518;SDS011;21627;48.216;16.482;2022-11-11T14:01:14;24.25;;;13.40;;
35518;SDS011;21627;48.216;16.482;2022-11-11T14:13:55;23.55;;;13.15;;
35518;SDS011;21627;48.216;16.482;2022-11-11T14:24:30;23.15;;;13.15;;
35518;SDS011;21627;48.216;16.482;2022-11-11T14:29:54;21.27;;;12.23;;
35518;SDS011;21627;48.216;16.482;2022-11-11T14:38:17;30.85;;;14.00;;
35518;SDS011;21627;48.216;16.482;2022-11-11T14:57:40;25.55;;;14.82;;
35518;SDS011;21627;48.216;16.482;2022-11-11T15:00:25;20.95;;;12.13;;
35518;SDS011;21627;48.216;16.482;2022-11-11T15:08:37;22.85;;;13.20;;
35518;SDS011;21627;48.216;16.482;2022-11-11T15:17:04;22.17;;;13.27;;
35518;SDS011;21627;48.216;16.482;2022-11-11T15:23:20;27.42;;;13.68;;
35518;SDS011;21627;48.216;16.482;2022-11-11T15:37:38;20.08;;;12.80;;
35518;SDS011;21627;48.216;16.482;2022-11-11T15:40:06;19.20;;;12.05;;
35518;SDS011;21627;48.216;16.482;2022-11-11T15:42:46;20.80;;;12.18;;
35518;SDS011;21627;48.216;16.482;2022-11-11T15:47:43;20.08;;;12.68;;
35518;SDS011;21627;48.216;16.482;2022-11-11T15:52:55;23.17;;;12.82;;
35518;SDS011;21627;48.216;16.482;2022-11-11T15:55:33;23.92;;;14.50;;
35518;SDS011;21627;48.216;16.482;2022-11-11T16:00:39;21.73;;;13.23;;
35518;SDS011;21627;48.216;16.482;2022-11-11T16:03:15;24.60;;;12.63;;
35518;SDS011;21627;48.216;16.482;2022-11-11T16:05:46;21.70;;;14.15;;
35518;SDS011;21627;48.216;16.482;2022-11-11T16:08:20;23.98;;;13.75;;
35518;SDS011;21627;48.216;16.482;2022-11-11T16:10:55;22.20;;;14.52;;
35518;SDS011;21627;48.216;16.482;2022-11-11T16:13:32;23.50;;;14.68;;
35518;SDS011;21627;48.216;16.482;2022-11-11T16:16:19;30.58;;;14.60;;
35518;SDS011;21627;48.216;16.482;2022-11-11T16:18:59;22.75;;;14.48;;
35518;SDS011;21627;48.216;16.482;2022-11-11T16:22:03;25.17;;;14.80;;
35518;SDS011;21627;48.216;16.482;2022-11-11T16:24:42;28.10;;;15.13;;
35518;SDS011;21627;48.216;16.482;2022-11-11T16:27:12;21.88;;;14.52;;
35518;SDS011;21627;48.216;16.482;2022-11-11T16:29:45;28.80;;;15.30;;
35518;SDS011;21627;48.216;16.482;2022-11-11T16:34:51;27.05;;;15.80;;
35518;SDS011;21627;48.216;16.482;2022-11-11T16:37:20;25.50;;;15.23;;
35518;SDS011;21627;48.216;16.482;2022-11-11T16:39:47;23.20;;;14.77;;
35518;SDS011;21627;48.216;16.482;2022-11-11T16:42:24;22.70;;;14.95;;
35518;SDS011;21627;48.216;16.482;2022-11-11T16:45:04;24.13;;;14.60;;
35518;SDS011;21627;48.216;16.482;2022-11-11T16:47:44;32.05;;;17.10;;
35518;SDS011;21627;48.216;16.482;2022-11-11T16:52:52;25.20;;;13.90;;
35518;SDS011;21627;48.216;16.482;2022-11-11T16:55:31;29.27;;;15.80;;
35518;SDS011;21627;48.216;16.482;2022-11-11T16:58:27;24.08;;;14.38;;
35518;SDS011;21627;48.216;16.482;2022-11-11T17:00:58;24.73;;;14.77;;
35518;SDS011;21627;48.216;16.482;2022-11-11T17:03:28;29.77;;;16.67;;
35518;SDS011;21627;48.216;16.482;2022-11-11T17:05:56;34.25;;;18.65;;
35518;SDS011;21627;48.216;16.482;2022-11-11T17:11:05;27.33;;;16.02;;
35518;SDS011;21627;48.216;16.482;2022-11-11T17:13:34;37.22;;;17.08;;
35518;SDS011;21627;48.216;16.482;2022-11-11T17:16:08;34.13;;;18.60;;
35518;SDS011;21627;48.216;16.482;2022-11-11T17:18:38;35.08;;;18.25;;
35518;SDS011;21627;48.216;16.482;2022-11-11T17:21:06;36.40;;;19.17;;
35518;SDS011;21627;48.216;16.482;2022-11-11T17:23:33;25.60;;;15.90;;
35518;SDS011;21627;48.216;16.482;2022-11-11T17:26:06;29.52;;;17.77;;
35518;SDS011;21627;48.216;16.482;2022-11-11T17:28:34;35.15;;;19.13;;
35518;SDS011;21627;48.216;16.482;2022-11-11T17:31:03;30.35;;;17.33;;
35518;SDS011;21627;48.216;16.482;2022-11-11T17:33:36;34.80;;;18.50;;
35518;SDS011;21627;48.216;16.482;2022-11-11T17:36:04;37.83;;;20.20;;
35518;SDS011;21627;48.216;16.482;2022-11-11T17:38:35;33.95;;;19.95;;
35518;SDS011;21627;48.216;16.482;2022-11-11T17:41:04;35.45;;;19.33;;
35518;SDS011;21627;48.216;16.482;2022-11-11T17:43:33;30.65;;;17.42;;
35518;SDS011;21627;48.216;16.482;2022-11-11T17:46:01;32.72;;;20.15;;
35518;SDS011;21627;48.216;16.482;2022-11-11T17:48:36;35.80;;;20.15;;
35518;SDS011;21627;48.216;16.482;2022-11-11T17:51:03;31.75;;;19.08;;
35518;SDS011;21627;48.216;16.482;2022-11-11T17:53:32;34.20;;;20.52;;
35518;SDS011;21627;48.216;16.482;2022-11-11T17:56:03;38.95;;;22.20;;
35518;SDS011;21627;48.216;16.482;2022-11-11T17:58:34;33.40;;;21.40;;
35518;SDS011;21627;48.216;16.482;2022-11-11T18:01:07;38.05;;;20.25;;
35518;SDS011;21627;48.216;16.482;2022-11-11T18:03:38;35.28;;;20.35;;
35518;SDS011;21627;48.216;16.482;2022-11-11T18:06:06;40.47;;;21.77;;
35518;SDS011;21627;48.216;16.482;2022-11-11T18:08:36;35.45;;;20.60;;
35518;SDS011;21627;48.216;16.482;2022-11-11T18:11:05;36.95;;;19.75;;
35518;SDS011;21627;48.216;16.482;2022-11-11T18:13:34;37.85;;;21.45;;
35518;SDS011;21627;48.216;16.482;2022-11-11T18:16:03;35.65;;;20.38;;
35518;SDS011;21627;48.216;16.482;2022-11-11T18:18:32;35.65;;;21.92;;
35518;SDS011;21627;48.216;16.482;2022-11-11T18:21:03;39.90;;;22.42;;
35518;SDS011;21627;48.216;16.482;2022-11-11T18:23:32;46.58;;;23.52;;
35518;SDS011;21627;48.216;16.482;2022-11-11T18:26:03;43.25;;;25.45;;